Accueil
METAR-TAF:

METAR-TAF

Aéroports :

Paderborn-Lippstadt, Allemagne

latitude: 51-37N, longitude: 008-37E, altitude: 213 m

Observation

Le bulletin a été fait il y a 2 heures et 43 minutes, à 15:50 UTC
Vent 2 kt de direction variable
Température 4°C
Humidité 87%
Pression 1039 hPa
Visibilité: 4800 m
Ciel couvert à une hauteur de 600 ft

METAR: EDLP 271550Z VRB02KT 4800 OVC006 04/02 Q1039

Heure: 19:33 (18:33 UTC)

Prévision

Le bulletin a été fait il y a 2 heures et 51 minutes, à 15:42 UTC
Prévision valable du 27 à 15 UTC au 28 à 12 UTC
Vent 4 kt de ouest/nord-ouest
Visibilité 10 km ou plus
Ciel couvert à une hauteur de 700 ft
Evoluant progressivement
du 28 à 01 UTC au 28 à 04 UTC
Visibilité: 4000 m
brume
Probabilité 30% :
Temporairement
du 28 à 07 UTC au 28 à 10 UTC
Nuages fragmentés à une hauteur de 400 ft

TAF: EDLP 271542Z 2715/2812 30004KT 9999 OVC007 BECMG 2801/2804 4000 BR PROB30 TEMPO 2807/2810 BKN004

Observations et prévisions météorologiques de plus de 4000 aéroports (messages METAR et TAF).

Les stations disponibles sont représentées par des disques jaunes et rouges sur la carte.

Passer la souris dessus pour voir le nom de la station.

Cliquer dessus pour voir les observations et prévisions météorologiques.

Pour changer de carte: cliquez sur les boutons verts avec une croix noire pour zoomer, sur le bouton vert avec un tiret pour effectuer un zoom arrière, ou sur les flèches vertes pour les cartes adjacentes.


METAR-TAF: